Time;durP1;ratioP1;P1;durP2;ratioP2;P2;SDS_P1;SDS_P2;PMS_P1;PMS_P2;Temp;Humidity;BMP_temperature;BMP_pressure;BME280_temperature;BME280_humidity;BME280_pressure;Samples;Min_cycle;Max_cycle;Signal;HPM_P1;HPM_P2
2022/03/29 00:01:09;;;;;;;21.27;15.07;;;10.30;99.90;;;;;;4976071;28;20225;-52
2022/03/29 00:03:42;;;;;;;23.30;16.00;;;10.40;99.90;;;;;;4974255;28;20642;-53
2022/03/29 00:06:09;;;;;;;22.90;16.60;;;10.40;60.60;;;;;;4975012;28;20246;-51
2022/03/29 00:08:36;;;;;;;21.10;16.13;;;10.20;99.90;;;;;;4975552;28;20203;-50
2022/03/29 00:11:03;;;;;;;22.40;16.50;;;10.20;99.90;;;;;;4976478;28;20360;-52
2022/03/29 00:13:30;;;;;;;21.80;16.37;;;10.10;99.90;;;;;;4976057;28;20301;-52
2022/03/29 00:15:56;;;;;;;22.00;16.40;;;10.20;99.90;;;;;;4976070;28;20617;-52
2022/03/29 00:18:23;;;;;;;22.87;15.67;;;10.10;99.90;;;;;;4976455;28;20206;-50
2022/03/29 00:20:50;;;;;;;22.00;15.87;;;10.10;99.90;;;;;;4973566;28;20220;-50
2022/03/29 00:23:18;;;;;;;22.43;16.97;;;10.00;99.90;;;;;;4975799;28;20207;-51
2022/03/29 00:25:45;;;;;;;25.70;17.27;;;10.10;99.90;;;;;;4973687;28;20211;-49
2022/03/29 00:28:12;;;;;;;24.07;16.47;;;10.10;99.90;;;;;;4974679;28;20751;-51
2022/03/29 00:30:38;;;;;;;23.67;16.47;;;10.20;99.90;;;;;;4976956;28;20214;-50
2022/03/29 00:33:05;;;;;;;25.27;17.60;;;10.10;99.90;;;;;;4975632;28;20651;-51
2022/03/29 00:35:32;;;;;;;26.97;17.47;;;10.00;99.90;;;;;;4974143;28;20246;-52
2022/03/29 00:37:59;;;;;;;26.03;17.40;;;10.00;99.90;;;;;;4977266;28;20209;-50
2022/03/29 00:40:26;;;;;;;24.40;17.33;;;9.90;99.90;;;;;;4974929;28;20315;-51
2022/03/29 00:42:53;;;;;;;25.03;17.80;;;9.90;99.90;;;;;;4976501;28;20347;-52
2022/03/29 00:45:20;;;;;;;23.50;16.83;;;9.80;99.90;;;;;;4976829;28;20655;-51
2022/03/29 00:47:47;;;;;;;23.10;17.07;;;9.70;99.90;;;;;;4975299;28;20238;-50
2022/03/29 00:50:14;;;;;;;24.20;17.20;;;9.60;99.90;;;;;;4971706;28;20301;-51
2022/03/29 00:52:41;;;;;;;25.83;17.30;;;9.50;99.90;;;;;;4978490;28;20306;-51
2022/03/29 00:55:12;;;;;;;27.60;17.87;;;9.70;99.90;;;;;;4976180;28;20208;-50
2022/03/29 00:57:40;;;;;;;24.90;17.80;;;9.80;99.90;;;;;;4972992;28;20289;-51
2022/03/29 01:00:07;;;;;;;23.23;16.77;;;9.70;99.90;;;;;;4974691;28;20223;-52
2022/03/29 01:02:35;;;;;;;23.90;17.60;;;9.80;99.90;;;;;;4974576;28;20199;-54
2022/03/29 01:05:02;;;;;;;23.07;16.13;;;9.80;99.90;;;;;;4976104;28;20216;-52
2022/03/29 01:07:30;;;;;;;27.00;19.03;;;9.50;99.90;;;;;;4973897;28;20664;-53
2022/03/29 01:09:58;;;;;;;25.70;17.30;;;9.60;99.90;;;;;;4977252;28;20213;-50
2022/03/29 01:12:26;;;;;;;24.77;17.20;;;9.70;99.90;;;;;;4975530;28;20695;-51
2022/03/29 01:14:53;;;;;;;25.67;17.37;;;9.70;99.90;;;;;;4976028;28;20256;-50
2022/03/29 01:17:39;;;;;;;24.83;17.37;;;9.80;99.90;;;;;;4975941;28;20213;-53
2022/03/29 01:20:10;;;;;;;27.97;17.97;;;9.70;99.90;;;;;;4973932;28;20679;-51
2022/03/29 01:22:42;;;;;;;26.70;19.10;;;9.60;99.90;;;;;;4974883;28;20226;-49
2022/03/29 01:25:17;;;;;;;27.17;18.17;;;9.60;99.90;;;;;;4975666;28;20289;-50
2022/03/29 01:27:45;;;;;;;23.37;16.87;;;9.40;99.90;;;;;;4975992;28;20661;-50
2022/03/29 01:30:13;;;;;;;27.57;18.43;;;9.20;99.90;;;;;;4973636;28;20296;-49
2022/03/29 01:32:43;;;;;;;23.47;17.53;;;9.30;99.90;;;;;;4974228;28;20211;-57
2022/03/29 01:35:12;;;;;;;25.40;18.40;;;9.40;99.90;;;;;;4973602;28;20254;-51
2022/03/29 01:37:39;;;;;;;25.13;17.73;;;9.30;99.90;;;;;;4974249;28;20351;-50
2022/03/29 01:40:10;;;;;;;27.90;17.73;;;9.10;99.90;;;;;;4974556;28;20634;-51
2022/03/29 01:42:37;;;;;;;27.17;18.63;;;9.10;99.90;;;;;;4975032;28;20288;-50
2022/03/29 01:45:04;;;;;;;26.83;18.57;;;9.10;99.90;;;;;;4973703;28;20656;-49
2022/03/29 01:47:31;;;;;;;28.47;18.20;;;9.20;99.90;;;;;;4980009;28;20362;-51
2022/03/29 01:49:58;;;;;;;26.60;19.53;;;9.10;99.90;;;;;;4973432;28;20209;-51
2022/03/29 01:52:24;;;;;;;26.83;18.80;;;9.00;99.90;;;;;;4975043;28;20210;-51
2022/03/29 01:54:51;;;;;;;29.13;17.87;;;9.20;99.90;;;;;;4975370;28;20204;-53
2022/03/29 01:57:18;;;;;;;27.27;18.73;;;9.10;99.90;;;;;;4974300;28;20740;-51
2022/03/29 02:02:30;;;;;;;27.63;18.67;;;9.10;99.90;;;;;;4972659;28;20649;-52
2022/03/29 02:04:57;;;;;;;25.90;18.00;;;8.90;99.90;;;;;;4970578;28;20326;-54
2022/03/29 02:07:24;;;;;;;30.67;18.83;;;9.10;99.90;;;;;;4973687;28;20317;-53
2022/03/29 02:09:50;;;;;;;25.80;18.87;;;9.10;99.90;;;;;;4973724;28;21628;-52
2022/03/29 02:12:17;;;;;;;30.17;18.90;;;9.00;99.90;;;;;;4975550;28;20362;-51
2022/03/29 02:14:44;;;;;;;26.57;18.37;;;9.00;99.90;;;;;;4975171;28;20342;-52
2022/03/29 02:17:11;;;;;;;28.57;18.53;;;9.00;99.90;;;;;;4975202;28;20669;-52
2022/03/29 02:19:38;;;;;;;27.03;18.50;;;8.80;99.90;;;;;;4973140;28;20639;-51
2022/03/29 02:22:05;;;;;;;27.47;18.83;;;8.80;99.90;;;;;;4974028;28;20299;-53
2022/03/29 02:24:32;;;;;;;27.03;18.80;;;8.80;99.90;;;;;;4975844;28;20193;-52
2022/03/29 02:26:58;;;;;;;27.80;18.87;;;8.70;99.90;;;;;;4976125;28;20211;-53
2022/03/29 02:29:25;;;;;;;26.83;20.07;;;8.70;99.90;;;;;;4977310;28;20230;-50
2022/03/29 02:31:52;;;;;;;26.33;18.53;;;8.70;99.90;;;;;;4976900;28;20234;-51
2022/03/29 02:34:19;;;;;;;26.27;19.23;;;8.70;99.90;;;;;;4974797;28;20631;-53
2022/03/29 02:36:46;;;;;;;29.80;19.50;;;8.70;99.90;;;;;;4976932;28;20200;-53
2022/03/29 02:39:12;;;;;;;31.67;19.70;;;8.70;99.90;;;;;;4976357;28;20241;-52
2022/03/29 02:41:39;;;;;;;29.13;19.30;;;8.80;99.90;;;;;;4976131;28;20300;-52
2022/03/29 02:44:06;;;;;;;27.27;18.67;;;8.90;99.90;;;;;;4974513;28;21000;-52
2022/03/29 02:46:34;;;;;;;27.87;18.50;;;8.90;99.90;;;;;;4976030;28;20305;-51
2022/03/29 02:49:01;;;;;;;30.33;20.40;;;8.80;99.90;;;;;;4974599;28;20670;-51
2022/03/29 02:51:29;;;;;;;25.77;18.43;;;8.80;99.90;;;;;;4972465;28;20208;-55
2022/03/29 02:53:55;;;;;;;28.50;19.37;;;8.60;99.90;;;;;;4972892;28;20239;-51
2022/03/29 02:56:22;;;;;;;27.67;18.87;;;8.50;99.90;;;;;;4972503;28;20363;-53
2022/03/29 02:58:49;;;;;;;28.87;20.07;;;8.40;99.90;;;;;;4975624;28;20207;-53
2022/03/29 03:01:16;;;;;;;32.23;19.87;;;8.30;99.90;;;;;;4969865;28;20320;-53
2022/03/29 03:03:43;;;;;;;29.80;19.47;;;8.40;99.90;;;;;;4971812;28;20195;-50
2022/03/29 03:06:10;;;;;;;29.37;20.10;;;8.40;99.90;;;;;;4972084;28;20330;-57
2022/03/29 03:08:37;;;;;;;31.10;18.73;;;8.60;99.90;;;;;;4975353;28;20193;-53
2022/03/29 03:11:04;;;;;;;29.43;19.50;;;8.60;99.90;;;;;;4971765;28;20291;-52
2022/03/29 03:13:35;;;;;;;28.77;18.93;;;8.50;99.90;;;;;;4978295;28;20540;-54
2022/03/29 03:16:02;;;;;;;29.27;19.83;;;8.60;99.90;;;;;;4970240;28;20260;-51
2022/03/29 03:18:29;;;;;;;27.00;18.87;;;8.50;99.90;;;;;;4974072;28;20316;-52
2022/03/29 03:20:56;;;;;;;30.60;21.10;;;8.40;99.90;;;;;;4972888;28;20731;-54
2022/03/29 03:23:23;;;;;;;30.23;19.13;;;8.20;99.90;;;;;;4974927;28;20198;-51
2022/03/29 03:25:50;;;;;;;32.87;20.23;;;8.20;99.90;;;;;;4971410;28;20884;-52
2022/03/29 03:28:17;;;;;;;34.77;21.60;;;8.20;99.90;;;;;;4975141;28;21110;-54
2022/03/29 03:30:44;;;;;;;33.30;20.20;;;7.90;99.90;;;;;;4972062;28;20264;-53
2022/03/29 03:33:10;;;;;;;34.90;22.13;;;7.80;99.90;;;;;;4974650;28;20611;-53
2022/03/29 03:35:38;;;;;;;36.27;21.90;;;7.90;99.90;;;;;;4975113;28;20214;-53
2022/03/29 03:38:06;;;;;;;37.37;22.73;;;7.90;99.90;;;;;;4976786;28;20295;-52
2022/03/29 03:40:33;;;;;;;35.50;23.77;;;8.00;99.90;;;;;;4973142;28;20298;-51
2022/03/29 03:43:03;;;;;;;36.40;24.30;;;8.10;99.90;;;;;;4973100;28;20291;-55
2022/03/29 03:45:30;;;;;;;36.53;23.27;;;8.10;99.90;;;;;;4974334;28;20839;-51
2022/03/29 03:47:56;;;;;;;34.17;22.57;;;8.10;99.90;;;;;;4971712;28;20202;-51
2022/03/29 03:50:23;;;;;;;39.00;24.47;;;8.00;99.90;;;;;;4971781;28;20196;-54
2022/03/29 03:52:51;;;;;;;36.50;22.77;;;7.90;99.90;;;;;;4972216;28;20215;-51
2022/03/29 03:55:18;;;;;;;38.20;23.27;;;7.90;99.90;;;;;;4975707;28;20265;-53
2022/03/29 03:57:45;;;;;;;40.47;23.33;;;8.00;99.90;;;;;;4976293;28;20206;-53
2022/03/29 04:00:12;;;;;;;40.10;23.27;;;8.10;99.90;;;;;;4972607;28;20331;-51
2022/03/29 04:02:40;;;;;;;41.33;24.47;;;8.10;99.90;;;;;;4971778;28;20237;-53
2022/03/29 04:05:08;;;;;;;36.23;23.13;;;8.20;99.90;;;;;;4970775;28;20298;-55
2022/03/29 04:07:35;;;;;;;36.23;22.63;;;8.20;99.90;;;;;;4973611;28;20299;-53
2022/03/29 04:10:02;;;;;;;36.13;23.10;;;8.20;99.90;;;;;;4972630;28;20692;-51
2022/03/29 04:12:29;;;;;;;35.30;23.60;;;8.30;99.90;;;;;;4972546;28;20540;-51
2022/03/29 04:14:56;;;;;;;38.60;23.43;;;8.20;99.90;;;;;;4975881;28;20315;-51
2022/03/29 04:17:22;;;;;;;34.43;23.03;;;8.20;99.90;;;;;;4972347;28;20205;-53
2022/03/29 04:19:49;;;;;;;33.87;22.00;;;8.20;99.90;;;;;;4973242;28;20747;-52
2022/03/29 04:22:18;;;;;;;40.40;24.17;;;8.10;99.90;;;;;;4974079;28;20321;-51
2022/03/29 04:24:45;;;;;;;41.77;24.10;;;8.10;99.90;;;;;;4975802;28;20643;-54
2022/03/29 04:27:12;;;;;;;38.90;24.33;;;7.90;99.90;;;;;;4977772;28;20246;-52
2022/03/29 04:29:39;;;;;;;37.93;22.50;;;8.10;99.90;;;;;;4975914;28;20792;-52
2022/03/29 04:32:09;;;;;;;42.30;24.53;;;8.10;99.90;;;;;;4975262;28;20208;-54
2022/03/29 04:34:36;;;;;;;41.33;23.40;;;8.00;99.90;;;;;;4974033;28;20292;-50
2022/03/29 04:37:04;;;;;;;41.13;24.47;;;8.00;99.90;;;;;;4975768;28;20295;-53
2022/03/29 04:39:31;;;;;;;40.53;23.27;;;8.00;99.90;;;;;;4975367;28;20215;-54
2022/03/29 04:41:58;;;;;;;38.30;23.97;;;8.20;99.90;;;;;;4976037;28;20221;-52
2022/03/29 04:44:34;;;;;;;36.27;22.73;;;8.00;99.90;;;;;;4974425;28;21828;-53
2022/03/29 04:47:02;;;;;;;41.00;24.27;;;8.00;99.90;;;;;;4976247;28;20977;-52
2022/03/29 04:49:28;;;;;;;37.27;24.17;;;8.00;99.90;;;;;;4974261;28;20277;-51
2022/03/29 04:51:55;;;;;;;42.40;24.60;;;8.00;99.90;;;;;;4974623;28;20303;-50
2022/03/29 04:54:23;;;;;;;41.90;24.50;;;8.00;99.90;;;;;;4974826;28;20606;-52
2022/03/29 04:56:50;;;;;;;45.83;25.40;;;8.10;99.90;;;;;;4976041;28;20651;-51
2022/03/29 04:59:17;;;;;;;42.00;24.87;;;8.10;99.90;;;;;;4974994;28;20297;-53
2022/03/29 05:01:45;;;;;;;38.60;23.87;;;8.10;99.90;;;;;;4978018;28;20221;-53
2022/03/29 05:04:12;;;;;;;43.17;25.27;;;8.00;99.90;;;;;;4973127;28;20215;-53
2022/03/29 05:06:39;;;;;;;40.07;24.87;;;7.90;99.90;;;;;;4974931;28;20890;-50
2022/03/29 05:09:05;;;;;;;41.60;24.63;;;7.90;99.90;;;;;;4974604;28;20371;-51
2022/03/29 05:11:33;;;;;;;38.13;23.53;;;8.00;99.90;;;;;;4972193;28;20733;-52
2022/03/29 05:14:00;;;;;;;44.97;24.33;;;7.90;99.90;;;;;;4975807;28;20255;-52
2022/03/29 05:16:27;;;;;;;42.67;23.67;;;7.90;99.90;;;;;;4976365;28;20226;-54
2022/03/29 05:18:54;;;;;;;35.93;23.03;;;7.80;99.90;;;;;;4975300;28;20229;-53
2022/03/29 05:21:20;;;;;;;39.10;22.37;;;7.80;99.90;;;;;;4972838;28;20307;-54
2022/03/29 05:23:47;;;;;;;39.00;24.13;;;7.90;99.90;;;;;;4974127;28;20293;-52
2022/03/29 05:26:14;;;;;;;39.33;22.63;;;7.70;99.90;;;;;;4974298;28;20675;-50
2022/03/29 05:28:41;;;;;;;42.60;22.77;;;7.70;99.90;;;;;;4974119;28;20731;-55
2022/03/29 05:31:08;;;;;;;43.23;24.97;;;7.70;99.90;;;;;;4971641;28;20202;-52
2022/03/29 05:33:35;;;;;;;37.27;23.10;;;7.70;99.90;;;;;;4973876;28;20213;-51
2022/03/29 05:36:03;;;;;;;37.43;23.77;;;7.70;99.90;;;;;;4976123;28;20244;-51
2022/03/29 05:38:30;;;;;;;43.63;24.70;;;7.70;99.90;;;;;;4972440;28;20206;-54
2022/03/29 05:40:56;;;;;;;43.30;23.00;;;7.80;99.90;;;;;;4971765;28;20612;-53
2022/03/29 05:43:23;;;;;;;38.03;22.70;;;7.70;99.90;;;;;;4972515;28;20577;-53
2022/03/29 05:48:52;;;;;;;37.63;22.90;;;7.70;99.90;;;;;;4972443;28;20811;-53
2022/03/29 05:51:27;;;;;;;37.13;21.93;;;7.60;99.90;;;;;;4971347;28;20675;-55
2022/03/29 05:53:55;;;;;;;41.67;22.83;;;7.70;99.90;;;;;;4974438;28;20238;-52
2022/03/29 05:56:22;;;;;;;39.80;22.43;;;7.90;99.90;;;;;;4971087;28;20286;-50
2022/03/29 05:58:50;;;;;;;38.73;22.93;;;7.80;99.90;;;;;;4969125;28;20340;-51
2022/03/29 06:01:18;;;;;;;43.60;23.57;;;7.90;99.90;;;;;;4971267;28;20712;-53
2022/03/29 06:03:45;;;;;;;42.13;23.53;;;7.90;99.90;;;;;;4968852;28;20207;-53
2022/03/29 06:06:13;;;;;;;38.87;21.77;;;7.90;99.90;;;;;;4969357;28;20230;-53
2022/03/29 06:08:41;;;;;;;37.07;21.07;;;7.90;99.90;;;;;;4976160;28;20296;-53
2022/03/29 06:11:08;;;;;;;37.97;21.90;;;8.00;99.90;;;;;;4972037;28;20610;-52
2022/03/29 06:13:35;;;;;;;33.77;21.17;;;7.90;99.90;;;;;;4973193;28;20651;-53
2022/03/29 06:16:05;;;;;;;38.23;22.07;;;7.70;99.90;;;;;;4973859;28;20597;-52
2022/03/29 06:18:33;;;;;;;36.50;21.50;;;7.60;99.90;;;;;;4976355;28;20598;-52
2022/03/29 06:21:00;;;;;;;36.20;21.30;;;7.70;99.90;;;;;;4977009;28;20212;-51
2022/03/29 06:23:26;;;;;;;37.93;23.07;;;7.70;99.90;;;;;;4978374;28;20275;-50
2022/03/29 06:25:55;;;;;;;40.47;23.47;;;7.90;99.90;;;;;;4978122;28;20551;-54
2022/03/29 06:28:22;;;;;;;36.50;22.03;;;7.90;99.90;;;;;;4977051;28;20264;-52
2022/03/29 06:30:49;;;;;;;37.77;21.93;;;7.90;99.90;;;;;;4977365;28;20649;-52
2022/03/29 06:33:16;;;;;;;38.40;22.90;;;7.80;99.90;;;;;;4973874;28;20254;-51
2022/03/29 06:35:43;;;;;;;35.97;21.60;;;7.80;99.90;;;;;;4978832;28;20294;-51
2022/03/29 06:38:10;;;;;;;32.90;20.47;;;7.80;99.90;;;;;;4978838;28;20239;-50
2022/03/29 06:40:36;;;;;;;36.97;20.27;;;7.90;99.90;;;;;;4977135;28;20871;-51
2022/03/29 06:43:03;;;;;;;37.73;21.47;;;7.80;99.90;;;;;;4978020;28;20600;-51
2022/03/29 06:45:30;;;;;;;38.50;22.53;;;7.80;99.90;;;;;;4977479;28;20681;-52
2022/03/29 06:47:58;;;;;;;36.50;21.00;;;7.90;99.90;;;;;;4977691;28;20891;-55
2022/03/29 06:50:25;;;;;;;37.40;22.80;;;8.10;99.90;;;;;;4976849;28;20198;-54
2022/03/29 06:52:53;;;;;;;41.77;23.40;;;8.10;99.90;;;;;;4978045;28;20205;-52
2022/03/29 06:55:25;;;;;;;40.13;22.50;;;8.00;99.90;;;;;;4978441;28;20612;-51
2022/03/29 06:57:52;;;;;;;34.80;20.30;;;8.00;99.90;;;;;;4973707;28;20306;-53
2022/03/29 07:00:20;;;;;;;36.30;22.57;;;8.00;99.90;;;;;;4977694;28;20823;-52
2022/03/29 07:02:48;;;;;;;42.27;23.13;;;8.00;99.90;;;;;;4976340;28;20232;-56
2022/03/29 07:05:15;;;;;;;39.33;22.47;;;8.10;99.90;;;;;;4973568;28;20293;-55
2022/03/29 07:07:42;;;;;;;41.37;21.00;;;8.00;99.90;;;;;;4977914;28;20303;-51
2022/03/29 07:12:58;;;;;;;38.87;22.70;;;7.90;99.90;;;;;;4979549;28;20756;-52
2022/03/29 07:15:25;;;;;;;38.97;21.73;;;7.90;99.90;;;;;;4978361;28;20246;-54
2022/03/29 07:17:53;;;;;;;33.73;20.87;;;7.90;99.90;;;;;;4978625;28;20302;-52
2022/03/29 07:20:21;;;;;;;37.97;21.97;;;7.80;99.90;;;;;;4976078;28;20207;-52
2022/03/29 07:22:49;;;;;;;37.37;20.87;;;7.70;99.90;;;;;;4979069;28;20280;-56
2022/03/29 07:25:18;;;;;;;37.23;21.80;;;7.80;99.90;;;;;;4977388;28;20362;-52
2022/03/29 07:27:46;;;;;;;35.00;20.60;;;7.70;99.90;;;;;;4976937;28;20256;-54
2022/03/29 07:30:13;;;;;;;39.80;21.43;;;7.80;99.90;;;;;;4977561;28;20641;-53
2022/03/29 07:32:49;;;;;;;36.93;21.83;;;7.70;99.90;;;;;;4977337;28;20287;-53
2022/03/29 07:35:18;;;;;;;34.00;19.63;;;7.70;99.90;;;;;;4975026;28;20282;-54
2022/03/29 07:37:46;;;;;;;38.83;21.30;;;7.70;99.90;;;;;;4977149;28;20291;-51
2022/03/29 07:40:15;;;;;;;38.80;21.37;;;7.60;99.90;;;;;;4977386;28;20283;-51
2022/03/29 07:42:42;;;;;;;39.20;22.10;;;7.70;99.90;;;;;;4975678;28;20247;-51
2022/03/29 07:45:13;;;;;;;39.93;22.33;;;7.80;99.90;;;;;;4978241;28;20373;-51
2022/03/29 07:47:41;;;;;;;39.73;21.07;;;7.70;99.90;;;;;;4974127;28;20302;-52
2022/03/29 07:50:30;;;;;;;39.03;20.50;;;7.80;99.90;;;;;;4975304;28;20232;-54
2022/03/29 07:53:03;;;;;;;37.63;21.60;;;7.80;99.90;;;;;;4977110;28;20205;-54
2022/03/29 07:55:30;;;;;;;38.23;22.20;;;7.70;99.90;;;;;;4980276;28;20251;-52
2022/03/29 07:58:12;;;;;;;35.30;20.73;;;7.80;99.90;;;;;;4979129;28;20202;-55
2022/03/29 08:00:40;;;;;;;39.60;21.73;;;7.90;99.90;;;;;;4979236;28;20635;-51
2022/03/29 08:03:09;;;;;;;38.93;21.80;;;8.00;99.90;;;;;;4977982;28;20227;-53
2022/03/29 08:05:39;;;;;;;37.43;22.13;;;8.10;99.90;;;;;;4977806;28;20607;-53
2022/03/29 08:08:06;;;;;;;37.27;21.40;;;8.10;99.90;;;;;;4977033;28;20216;-52
2022/03/29 08:10:33;;;;;;;35.60;20.87;;;8.20;99.90;;;;;;4976388;28;20283;-51
2022/03/29 08:13:03;;;;;;;37.43;22.30;;;8.10;99.90;;;;;;4979786;28;20304;-57
2022/03/29 08:15:30;;;;;;;37.47;21.17;;;8.00;99.90;;;;;;4976586;28;20715;-53
2022/03/29 08:18:01;;;;;;;39.20;21.37;;;7.90;99.90;;;;;;4974418;28;20204;-53
2022/03/29 08:20:29;;;;;;;38.37;21.20;;;7.80;99.90;;;;;;4978006;28;20205;-53
2022/03/29 08:23:00;;;;;;;37.97;21.90;;;8.10;99.90;;;;;;4980132;28;20275;-51
2022/03/29 08:25:29;;;;;;;35.30;21.63;;;8.10;99.90;;;;;;4976275;28;21130;-52
2022/03/29 08:27:56;;;;;;;34.73;19.83;;;8.20;99.90;;;;;;4979298;28;20205;-51
2022/03/29 08:30:26;;;;;;;35.47;21.03;;;8.20;99.90;;;;;;4978015;28;20196;-51
2022/03/29 08:32:54;;;;;;;37.47;21.57;;;8.10;99.90;;;;;;4977516;28;20225;-55
2022/03/29 08:35:27;;;;;;;35.30;20.67;;;8.00;99.90;;;;;;4977444;28;20632;-52
2022/03/29 08:37:54;;;;;;;37.60;20.47;;;8.20;99.90;;;;;;4978622;28;20234;-52
2022/03/29 08:40:44;;;;;;;35.37;21.10;;;8.20;99.90;;;;;;4981190;28;20217;-52
2022/03/29 08:43:13;;;;;;;34.33;20.53;;;8.30;99.90;;;;;;4978379;28;20728;-49
2022/03/29 08:45:43;;;;;;;35.53;20.90;;;8.20;99.90;;;;;;4978276;28;20209;-52
2022/03/29 08:48:10;;;;;;;35.53;20.70;;;8.20;99.90;;;;;;4976907;28;20907;-52
2022/03/29 08:50:38;;;;;;;37.30;23.27;;;8.40;99.90;;;;;;4975251;28;20205;-53
2022/03/29 08:53:07;;;;;;;35.80;20.67;;;8.50;99.90;;;;;;4974993;28;20210;-52
2022/03/29 08:55:35;;;;;;;33.80;21.00;;;8.40;99.90;;;;;;4972133;28;20866;-54
2022/03/29 08:58:02;;;;;;;36.10;21.30;;;8.40;99.90;;;;;;4974984;28;20215;-53
2022/03/29 09:00:29;;;;;;;38.27;22.57;;;8.50;99.90;;;;;;4978354;28;20268;-49
2022/03/29 09:02:56;;;;;;;37.30;21.63;;;8.50;99.90;;;;;;4974561;28;20221;-60
2022/03/29 09:05:27;;;;;;;41.03;23.23;;;8.50;99.90;;;;;;4975414;28;20573;-51
2022/03/29 09:08:08;;;;;;;39.60;21.87;;;8.60;99.90;;;;;;4976890;28;20240;-52
2022/03/29 09:10:48;;;;;;;38.40;22.27;;;8.60;99.90;;;;;;4978436;28;20644;-52
2022/03/29 09:13:19;;;;;;;41.10;22.50;;;8.50;99.90;;;;;;4979487;28;20641;-56
2022/03/29 09:15:48;;;;;;;41.40;22.27;;;8.40;99.90;;;;;;4975893;28;20202;-54
2022/03/29 09:18:16;;;;;;;41.60;22.70;;;8.50;99.90;;;;;;4976833;28;20241;-51
2022/03/29 09:20:45;;;;;;;37.63;22.63;;;8.50;99.90;;;;;;4974263;28;20260;-53
2022/03/29 09:23:17;;;;;;;36.50;21.30;;;8.50;99.90;;;;;;4976581;28;20224;-53
2022/03/29 09:25:47;;;;;;;36.77;21.53;;;8.50;99.90;;;;;;4975434;28;20231;-53
2022/03/29 09:28:16;;;;;;;35.57;21.53;;;8.50;99.90;;;;;;4977093;28;20329;-51
2022/03/29 09:30:48;;;;;;;36.80;21.33;;;8.60;99.90;;;;;;4978212;28;20249;-49
2022/03/29 09:33:32;;;;;;;38.80;22.93;;;8.60;99.90;;;;;;4976752;28;20211;-51
2022/03/29 09:36:07;;;;;;;39.80;21.83;;;8.60;99.90;;;;;;4974682;28;20297;-51
2022/03/29 09:38:41;;;;;;;39.23;20.83;;;8.50;99.90;;;;;;4981198;28;20215;-51
2022/03/29 09:41:26;;;;;;;38.00;21.57;;;8.50;99.90;;;;;;4975674;28;20240;-50
2022/03/29 09:44:03;;;;;;;44.33;23.10;;;8.60;99.90;;;;;;4976133;28;20251;-51
2022/03/29 09:46:30;;;;;;;39.60;22.73;;;8.80;99.90;;;;;;4976080;28;20206;-54
2022/03/29 09:49:02;;;;;;;37.80;21.13;;;8.60;99.90;;;;;;4978769;28;20320;-53
2022/03/29 09:51:28;;;;;;;41.50;22.23;;;8.40;99.90;;;;;;4975536;28;20201;-53
2022/03/29 09:53:59;;;;;;;44.27;22.93;;;8.30;99.90;;;;;;4978283;28;20218;-53
2022/03/29 09:56:30;;;;;;;35.47;21.87;;;8.20;99.90;;;;;;4978631;28;20214;-52
2022/03/29 09:59:16;;;;;;;37.10;21.30;;;8.30;99.90;;;;;;4974184;28;20208;-52
2022/03/29 10:01:53;;;;;;;37.80;21.20;;;8.30;99.90;;;;;;4975687;28;20630;-53
2022/03/29 10:04:21;;;;;;;34.10;20.77;;;8.20;99.90;;;;;;4974980;28;20572;-52
2022/03/29 10:06:50;;;;;;;37.40;21.57;;;8.40;99.90;;;;;;4975469;28;20227;-51
2022/03/29 10:09:32;;;;;;;38.13;21.67;;;8.70;99.90;;;;;;4974181;28;20225;-53
2022/03/29 10:12:02;;;;;;;38.73;21.27;;;8.70;99.90;;;;;;4974659;28;20245;-53
2022/03/29 10:14:31;;;;;;;36.43;20.77;;;8.80;99.90;;;;;;4974710;28;20228;-52
2022/03/29 10:16:58;;;;;;;37.03;21.10;;;8.90;99.90;;;;;;4976081;28;20224;-52
2022/03/29 10:19:25;;;;;;;37.50;20.47;;;8.90;99.90;;;;;;4975699;28;20235;-53
2022/03/29 10:21:57;;;;;;;34.97;20.63;;;9.00;99.90;;;;;;4973773;28;20483;-53
2022/03/29 10:24:25;;;;;;;38.40;21.73;;;8.90;99.90;;;;;;4972400;28;20222;-51
2022/03/29 10:26:55;;;;;;;37.53;22.10;;;8.80;99.90;;;;;;4968338;28;20206;-52
2022/03/29 10:29:23;;;;;;;38.27;21.53;;;9.00;99.90;;;;;;4970510;28;20200;-52
2022/03/29 10:31:55;;;;;;;39.17;21.97;;;9.00;99.90;;;;;;4976555;28;20753;-52
2022/03/29 10:34:27;;;;;;;37.57;21.50;;;9.00;99.90;;;;;;4972482;28;20715;-51
2022/03/29 10:37:13;;;;;;;36.67;20.37;;;9.10;99.90;;;;;;4971407;28;20226;-53
2022/03/29 10:39:57;;;;;;;39.87;22.40;;;9.20;99.90;;;;;;4969499;28;20645;-52
2022/03/29 10:42:43;;;;;;;40.10;22.13;;;9.10;99.90;;;;;;4969650;28;20943;-53
2022/03/29 10:45:24;;;;;;;38.40;22.37;;;9.20;99.90;;;;;;4973402;28;20232;-51
2022/03/29 10:47:59;;;;;;;40.13;21.87;;;9.30;99.90;;;;;;4975535;28;20724;-51
2022/03/29 10:50:53;;;;;;;44.30;21.20;;;9.20;99.90;;;;;;4974424;28;20312;-51
2022/03/29 10:53:35;;;;;;;38.20;21.67;;;9.10;99.90;;;;;;4975174;28;20207;-54
2022/03/29 10:56:15;;;;;;;41.83;21.77;;;9.30;99.90;;;;;;4976960;28;20837;-51
2022/03/29 10:59:11;;;;;;;40.57;20.77;;;9.10;99.90;;;;;;4977339;28;20233;-52
2022/03/29 11:01:40;;;;;;;36.90;20.57;;;9.40;99.90;;;;;;4976953;28;20210;-52
2022/03/29 11:04:19;;;;;;;30.57;18.77;;;9.40;99.90;;;;;;4974969;28;20219;-52
2022/03/29 11:07:05;;;;;;;34.53;20.20;;;9.60;99.90;;;;;;4972073;28;20700;-49
2022/03/29 11:09:36;;;;;;;34.13;20.33;;;9.60;99.90;;;;;;4969925;28;20657;-51
2022/03/29 11:12:03;;;;;;;38.50;22.43;;;9.60;99.90;;;;;;4974691;28;20244;-52
2022/03/29 11:14:37;;;;;;;33.87;20.97;;;9.60;99.90;;;;;;4976764;28;20256;-53
2022/03/29 11:17:04;;;;;;;37.43;21.87;;;9.70;99.90;;;;;;4972528;28;20229;-51
2022/03/29 11:19:46;;;;;;;38.20;22.73;;;9.60;99.90;;;;;;4970500;28;20205;-55
2022/03/29 11:22:22;;;;;;;35.57;21.97;;;9.70;99.90;;;;;;4977812;28;20208;-55
2022/03/29 11:24:50;;;;;;;37.07;20.67;;;9.80;99.90;;;;;;4973898;28;20266;-53
2022/03/29 11:27:28;;;;;;;39.60;21.60;;;9.80;99.90;;;;;;4975172;28;20634;-52
2022/03/29 11:29:56;;;;;;;35.23;20.37;;;9.90;99.90;;;;;;4974578;28;20200;-53
2022/03/29 11:32:23;;;;;;;34.37;21.13;;;9.90;99.90;;;;;;4977377;28;20201;-53
2022/03/29 11:34:58;;;;;;;35.63;20.57;;;10.10;57.00;;;;;;4972408;28;20200;-52
2022/03/29 11:37:28;;;;;;;33.27;19.63;;;10.20;93.90;;;;;;4973711;28;20676;-52
2022/03/29 11:39:57;;;;;;;34.87;20.17;;;10.30;1.00;;;;;;4973524;28;20209;-54
2022/03/29 11:42:40;;;;;;;32.93;20.83;;;10.30;1.00;;;;;;4975022;28;20240;-53
2022/03/29 11:45:08;;;;;;;34.40;21.63;;;10.40;1.00;;;;;;4974160;28;20578;-53
2022/03/29 11:47:34;;;;;;;36.03;21.80;;;10.70;1.00;;;;;;4971007;28;20342;-52
2022/03/29 11:50:01;;;;;;;32.20;19.93;;;10.70;99.90;;;;;;4975581;28;20745;-50
2022/03/29 11:52:36;;;;;;;32.57;19.63;;;10.50;99.90;;;;;;4972594;28;20287;-52
2022/03/29 11:55:15;;;;;;;28.27;18.77;;;10.70;1.00;;;;;;4975660;28;20628;-52
2022/03/29 11:57:44;;;;;;;29.07;18.40;;;10.80;99.90;;;;;;4976840;28;20204;-49
2022/03/29 12:00:25;;;;;;;27.50;18.17;;;11.00;1.00;;;;;;4973342;28;20708;-52
2022/03/29 12:02:52;;;;;;;31.10;17.43;;;10.80;99.90;;;;;;4975404;28;20234;-52
2022/03/29 12:05:24;;;;;;;28.93;17.23;;;11.00;99.90;;;;;;4973503;28;20212;-51
2022/03/29 12:08:02;;;;;;;29.80;17.93;;;11.50;1.00;;;;;;4975765;28;20252;-51
2022/03/29 12:10:33;;;;;;;28.67;17.50;;;12.20;1.00;;;;;;4967569;28;20204;-51
2022/03/29 12:13:00;;;;;;;23.70;17.20;;;12.10;99.90;;;;;;4973505;28;20253;-50
2022/03/29 12:15:27;;;;;;;27.97;17.10;;;12.30;73.70;;;;;;4967496;28;20664;-54
2022/03/29 12:20:48;;;;;;;28.10;17.70;;;12.50;1.00;;;;;;4966475;28;23670;-51
2022/03/29 12:23:27;;;;;;;26.40;17.43;;;12.70;99.90;;;;;;4973064;28;20309;-52
2022/03/29 12:25:56;;;;;;;27.97;17.67;;;12.40;99.90;;;;;;4968396;28;20206;-53
2022/03/29 12:28:24;;;;;;;26.20;17.47;;;12.40;99.90;;;;;;4974228;28;20198;-52
2022/03/29 12:30:54;;;;;;;30.17;18.97;;;12.80;99.90;;;;;;4964560;28;20338;-51
2022/03/29 12:33:23;;;;;;;30.90;18.43;;;13.10;99.90;;;;;;4969546;28;20226;-52
2022/03/29 12:36:12;;;;;;;28.67;18.93;;;13.00;1.00;;;;;;4969442;28;20215;-51
2022/03/29 12:39:09;;;;;;;27.77;17.97;;;13.20;1.00;;;;;;4975402;28;20662;-52
2022/03/29 12:41:46;;;;;;;25.97;17.77;;;12.90;1.00;;;;;;4976042;28;20310;-52
2022/03/29 12:44:15;;;;;;;26.90;17.47;;;13.20;1.00;;;;;;4976676;28;20686;-52
2022/03/29 12:46:44;;;;;;;26.03;16.87;;;13.30;99.90;;;;;;4975745;28;20310;-52
2022/03/29 12:49:11;;;;;;;29.93;17.37;;;13.50;99.90;;;;;;4978564;28;20210;-51
2022/03/29 12:51:39;;;;;;;27.73;18.43;;;14.00;1.00;;;;;;4974667;28;20571;-53
2022/03/29 12:54:09;;;;;;;25.80;17.07;;;14.10;1.00;;;;;;4977596;28;20552;-53
2022/03/29 12:56:43;;;;;;;26.27;17.43;;;14.30;1.00;;;;;;4978813;28;20599;-51
2022/03/29 12:59:32;;;;;;;27.37;17.70;;;14.50;1.00;;;;;;4979054;28;20228;-53